Time;durP1;ratioP1;P1;durP2;ratioP2;P2;SDS_P1;SDS_P2;PMS_P1;PMS_P2;Temp;Humidity;BMP_temperature;BMP_pressure;BME280_temperature;BME280_humidity;BME280_pressure;Samples;Min_cycle;Max_cycle;Signal;HPM_P1;HPM_P2
2022/02/08 00:00:05;;;;;;;788.83;376.58;;;;;;;;;;4957877;28;20066;-81
2022/02/08 00:02:34;;;;;;;786.63;370.70;;;;;;;;;;4946641;28;20050;-80
2022/02/08 00:05:00;;;;;;;806.20;372.40;;;;;;;;;;4951653;28;20077;-80
2022/02/08 00:07:28;;;;;;;785.70;370.23;;;;;;;;;;4962843;28;20035;-79
2022/02/08 00:09:54;;;;;;;786.78;376.77;;;;;;;;;;5050115;28;20124;-80
2022/02/08 00:12:21;;;;;;;781.83;370.00;;;;;;;;;;5031366;28;20092;-80
2022/02/08 00:14:48;;;;;;;782.10;364.63;;;;;;;;;;5031040;28;20555;-82
2022/02/08 00:17:14;;;;;;;810.08;362.75;;;;;;;;;;5040231;28;20377;-80
2022/02/08 00:19:40;;;;;;;777.05;358.08;;;;;;;;;;5051558;28;20051;-81
2022/02/08 00:22:06;;;;;;;776.05;362.02;;;;;;;;;;5031691;28;20037;-81
2022/02/08 00:24:33;;;;;;;777.17;359.02;;;;;;;;;;5025021;28;20043;-80
2022/02/08 00:26:59;;;;;;;774.85;360.83;;;;;;;;;;5038193;28;20029;-80
2022/02/08 00:29:25;;;;;;;777.75;361.08;;;;;;;;;;5035924;28;20455;-82
2022/02/08 00:31:51;;;;;;;774.60;358.40;;;;;;;;;;5039543;28;20031;-80
2022/02/08 00:34:17;;;;;;;772.75;355.65;;;;;;;;;;5037267;28;20121;-82
2022/02/08 00:36:43;;;;;;;789.03;361.00;;;;;;;;;;5057922;28;20136;-82
2022/02/08 00:39:11;;;;;;;770.00;345.83;;;;;;;;;;5056016;28;20020;-80
2022/02/08 00:41:37;;;;;;;782.65;351.70;;;;;;;;;;4976004;28;20062;-80
2022/02/08 00:44:14;;;;;;;767.85;347.52;;;;;;;;;;4954374;28;20069;-80
2022/02/08 00:46:48;;;;;;;766.80;350.48;;;;;;;;;;4906759;28;20098;-81
2022/02/08 00:49:14;;;;;;;762.72;338.52;;;;;;;;;;4906113;28;20616;-80
2022/02/08 00:51:50;;;;;;;769.00;354.75;;;;;;;;;;4908101;28;20127;-82
2022/02/08 00:54:17;;;;;;;764.58;339.52;;;;;;;;;;4920708;29;20116;-81
2022/02/08 00:56:43;;;;;;;765.13;348.90;;;;;;;;;;4990642;28;20048;-81
2022/02/08 00:59:09;;;;;;;764.50;346.40;;;;;;;;;;4903192;29;20082;-79
2022/02/08 01:01:38;;;;;;;770.33;350.48;;;;;;;;;;4909515;28;20071;-81
2022/02/08 01:04:05;;;;;;;761.83;344.58;;;;;;;;;;4920897;28;20411;-81
2022/02/08 01:06:32;;;;;;;762.72;345.52;;;;;;;;;;4907920;29;20075;-79
2022/02/08 01:09:12;;;;;;;760.55;342.45;;;;;;;;;;4904139;28;20534;-80
2022/02/08 01:11:38;;;;;;;;;;;;;;;;;;4926102;28;20492;-81
2022/02/08 01:14:04;;;;;;;757.00;320.70;;;;;;;;;;4929506;28;20044;-81
2022/02/08 01:16:31;;;;;;;758.03;329.75;;;;;;;;;;4908406;28;20182;-82
2022/02/08 01:18:58;;;;;;;762.13;337.85;;;;;;;;;;4945478;28;20031;-83
2022/02/08 01:21:24;;;;;;;763.20;342.60;;;;;;;;;;4944460;28;20027;-80
2022/02/08 01:23:50;;;;;;;762.33;343.55;;;;;;;;;;4951411;28;20035;-79
2022/02/08 01:26:18;;;;;;;766.05;355.00;;;;;;;;;;4958636;28;20399;-82
2022/02/08 01:28:55;;;;;;;764.55;350.67;;;;;;;;;;4959697;28;20031;-83
2022/02/08 01:31:23;;;;;;;765.10;351.33;;;;;;;;;;4954424;28;20380;-82
2022/02/08 01:37:01;;;;;;;771.65;356.88;;;;;;;;;;4948891;28;20247;-81
2022/02/08 01:39:43;;;;;;;764.97;345.60;;;;;;;;;;4971027;28;20397;-81
2022/02/08 01:42:26;;;;;;;767.75;357.17;;;;;;;;;;4947698;28;20526;-81
2022/02/08 01:45:09;;;;;;;768.85;355.95;;;;;;;;;;4948329;28;20698;-81
2022/02/08 01:50:12;;;;;;;774.58;373.08;;;;;;;;;;4952109;28;20036;-80
2022/02/08 01:52:38;;;;;;;773.25;367.20;;;;;;;;;;4942878;28;20038;-80
2022/02/08 01:55:05;;;;;;;776.63;378.95;;;;;;;;;;4943971;29;20509;-83
2022/02/08 01:57:31;;;;;;;775.13;379.20;;;;;;;;;;4951777;28;20029;-81
2022/02/08 01:59:57;;;;;;;773.53;373.90;;;;;;;;;;4945331;28;20050;-81
2022/02/08 02:02:23;;;;;;;777.67;379.88;;;;;;;;;;4966813;28;20531;-81
2022/02/08 02:04:49;;;;;;;778.28;385.08;;;;;;;;;;4949852;28;20095;-82
2022/02/08 02:07:16;;;;;;;778.28;385.40;;;;;;;;;;4949533;28;20126;-82
2022/02/08 02:09:45;;;;;;;780.33;391.92;;;;;;;;;;4952424;28;20039;-80
2022/02/08 02:12:12;;;;;;;782.17;399.15;;;;;;;;;;4946413;28;20069;-80
2022/02/08 02:14:39;;;;;;;775.70;386.63;;;;;;;;;;4945413;28;20466;-82
2022/02/08 02:17:07;;;;;;;781.33;397.27;;;;;;;;;;4948746;28;20031;-80
2022/02/08 02:19:33;;;;;;;783.42;403.17;;;;;;;;;;4952505;28;20280;-79
2022/02/08 02:22:00;;;;;;;783.60;406.88;;;;;;;;;;4955558;28;20031;-82
2022/02/08 02:24:26;;;;;;;803.58;403.25;;;;;;;;;;5024652;28;20114;-81
2022/02/08 02:26:52;;;;;;;780.95;400.05;;;;;;;;;;4944808;28;20031;-83
2022/02/08 02:29:22;;;;;;;783.05;407.75;;;;;;;;;;4956010;28;20027;-80
2022/02/08 02:31:49;;;;;;;788.63;415.23;;;;;;;;;;4963828;28;20107;-80
2022/02/08 02:34:16;;;;;;;784.83;407.33;;;;;;;;;;4943209;28;20490;-80
2022/02/08 02:36:42;;;;;;;787.83;415.98;;;;;;;;;;4966159;28;20062;-81
2022/02/08 02:39:08;;;;;;;790.03;424.40;;;;;;;;;;4942282;28;20534;-83
2022/02/08 02:41:40;;;;;;;792.78;428.80;;;;;;;;;;4948692;28;20027;-81
2022/02/08 02:44:08;;;;;;;789.58;418.77;;;;;;;;;;4970284;28;20132;-79
2022/02/08 02:46:34;;;;;;;789.13;419.90;;;;;;;;;;4945990;28;20058;-81
2022/02/08 02:49:02;;;;;;;793.22;421.52;;;;;;;;;;4957322;28;20027;-82
2022/02/08 02:51:29;;;;;;;787.75;416.65;;;;;;;;;;4957248;28;20141;-82
2022/02/08 02:53:54;;;;;;;793.38;431.95;;;;;;;;;;4958506;28;20047;-82
2022/02/08 02:56:21;;;;;;;791.60;423.58;;;;;;;;;;4964504;28;20032;-82
2022/02/08 02:58:47;;;;;;;790.95;430.63;;;;;;;;;;4946647;28;20539;-82
2022/02/08 03:19:53;;;;;;;800.38;447.13;;;;;;;;;;4946231;28;20027;-79
2022/02/08 03:22:19;;;;;;;798.95;440.08;;;;;;;;;;4956587;28;20043;-81
2022/02/08 03:24:45;;;;;;;796.78;442.45;;;;;;;;;;4952984;28;20062;-81
2022/02/08 03:27:11;;;;;;;796.40;440.50;;;;;;;;;;4958038;28;20431;-81
2022/02/08 03:29:37;;;;;;;802.08;450.38;;;;;;;;;;4957856;28;20028;-82
2022/02/08 03:32:03;;;;;;;799.42;447.05;;;;;;;;;;4947967;28;20110;-81
2022/02/08 03:34:29;;;;;;;798.55;444.38;;;;;;;;;;4956173;28;20508;-80
2022/02/08 03:36:55;;;;;;;804.45;459.30;;;;;;;;;;4942708;28;20437;-81
2022/02/08 03:39:33;;;;;;;801.20;448.95;;;;;;;;;;4943912;28;20031;-81
2022/02/08 03:42:07;;;;;;;803.55;454.02;;;;;;;;;;4941182;28;20019;-82
2022/02/08 03:44:34;;;;;;;801.58;453.90;;;;;;;;;;4948608;28;20050;-82
2022/02/08 03:47:05;;;;;;;806.70;464.15;;;;;;;;;;4965051;28;20110;-80
2022/02/08 03:49:31;;;;;;;797.67;440.05;;;;;;;;;;4943970;28;20035;-82
2022/02/08 03:52:01;;;;;;;800.38;449.88;;;;;;;;;;4947474;28;20081;-81
2022/02/08 03:54:27;;;;;;;801.30;444.17;;;;;;;;;;4944668;28;20024;-81
2022/02/08 03:56:52;;;;;;;803.47;451.13;;;;;;;;;;4947279;28;20343;-82
2022/02/08 03:59:18;;;;;;;800.75;449.45;;;;;;;;;;4946770;28;20028;-81
2022/02/08 04:07:09;;;;;;;806.10;457.17;;;;;;;;;;4947447;28;20058;-81
2022/02/08 04:09:35;;;;;;;799.28;441.42;;;;;;;;;;4946071;28;20626;-81
2022/02/08 04:12:06;;;;;;;805.70;457.58;;;;;;;;;;4942009;28;20471;-81
2022/02/08 04:17:27;;;;;;;;;;;;;;;;;;4947238;28;20031;-82
2022/02/08 04:31:23;;;;;;;;;;;;;;;;;;4944949;28;19917;-83
2022/02/08 04:41:44;;;;;;;801.60;447.38;;;;;;;;;;4940577;28;20641;-82
2022/02/08 04:49:11;;;;;;;805.70;459.08;;;;;;;;;;4943511;28;20442;-82
2022/02/08 04:51:45;;;;;;;805.20;451.23;;;;;;;;;;4942333;28;20081;-83
2022/02/08 04:54:25;;;;;;;801.50;446.95;;;;;;;;;;4946797;28;20441;-83
2022/02/08 04:59:30;;;;;;;808.20;466.13;;;;;;;;;;4949723;28;20041;-82
2022/02/08 05:43:37;;;;;;;809.70;461.55;;;;;;;;;;4949731;28;20121;-83
2022/02/08 05:46:42;;;;;;;807.90;457.52;;;;;;;;;;4945919;28;20506;-82
2022/02/08 05:48:52;;;;;;;806.00;450.95;;;;;;;;;;4949035;28;20398;-80
2022/02/08 05:51:21;;;;;;;806.13;454.33;;;;;;;;;;4952902;28;20441;-82
2022/02/08 05:53:48;;;;;;;808.55;459.05;;;;;;;;;;4948703;28;20122;-82
2022/02/08 05:56:15;;;;;;;809.65;462.50;;;;;;;;;;4963528;28;20046;-82
2022/02/08 05:58:43;;;;;;;808.58;463.10;;;;;;;;;;4951178;28;20058;-82
2022/02/08 06:01:09;;;;;;;808.28;459.33;;;;;;;;;;4953722;28;20043;-81
2022/02/08 06:03:35;;;;;;;807.50;456.58;;;;;;;;;;4947285;28;20058;-82
2022/02/08 06:06:01;;;;;;;809.97;452.20;;;;;;;;;;4957487;28;20136;-82
2022/02/08 06:08:27;;;;;;;809.13;459.00;;;;;;;;;;4941861;28;20435;-82
2022/02/08 06:11:02;;;;;;;809.13;459.92;;;;;;;;;;4948534;28;20043;-82
2022/02/08 06:13:29;;;;;;;807.17;452.80;;;;;;;;;;4948837;28;20047;-81
2022/02/08 06:16:01;;;;;;;800.35;441.90;;;;;;;;;;4942742;28;20042;-82
2022/02/08 06:18:28;;;;;;;805.78;447.92;;;;;;;;;;4944263;28;20031;-82
2022/02/08 06:20:55;;;;;;;804.15;445.35;;;;;;;;;;4952049;28;20042;-81
2022/02/08 06:23:20;;;;;;;805.67;450.52;;;;;;;;;;4942865;28;20471;-82
2022/02/08 06:25:46;;;;;;;805.42;451.05;;;;;;;;;;4943269;28;20027;-83
2022/02/08 06:28:13;;;;;;;804.85;449.70;;;;;;;;;;4945481;28;20107;-82
2022/02/08 06:30:39;;;;;;;802.63;444.60;;;;;;;;;;4951810;28;20027;-82
2022/02/08 06:33:06;;;;;;;801.30;441.25;;;;;;;;;;4943014;28;20732;-83
2022/02/08 06:35:34;;;;;;;800.97;441.35;;;;;;;;;;4947152;28;20027;-82
2022/02/08 06:38:01;;;;;;;803.35;442.95;;;;;;;;;;4946830;28;20027;-82
2022/02/08 06:40:27;;;;;;;801.97;445.85;;;;;;;;;;4958603;28;20113;-82
2022/02/08 06:43:02;;;;;;;800.70;440.75;;;;;;;;;;4963243;28;20795;-82
2022/02/08 06:45:28;;;;;;;807.83;434.05;;;;;;;;;;4962695;28;20221;-81
2022/02/08 06:47:54;;;;;;;801.75;442.27;;;;;;;;;;4959951;28;20023;-82
2022/02/08 06:50:20;;;;;;;800.10;439.90;;;;;;;;;;4943168;28;20027;-81
2022/02/08 06:52:46;;;;;;;804.30;451.33;;;;;;;;;;4957304;28;20495;-83
2022/02/08 06:55:12;;;;;;;803.33;445.83;;;;;;;;;;4953422;28;20046;-82
2022/02/08 06:57:58;;;;;;;804.33;447.08;;;;;;;;;;4941165;28;20532;-82
2022/02/08 07:00:30;;;;;;;806.72;445.85;;;;;;;;;;4948336;28;20065;-82
2022/02/08 07:03:02;;;;;;;804.10;448.65;;;;;;;;;;4941589;28;20039;-83
2022/02/08 07:05:28;;;;;;;806.47;453.55;;;;;;;;;;4961972;28;20058;-82
2022/02/08 07:07:54;;;;;;;805.15;447.88;;;;;;;;;;4944534;28;20387;-82
2022/02/08 07:10:20;;;;;;;802.92;444.75;;;;;;;;;;4959786;28;20028;-82
2022/02/08 07:12:46;;;;;;;807.80;457.67;;;;;;;;;;4946716;28;20091;-82
2022/02/08 07:15:14;;;;;;;807.92;461.23;;;;;;;;;;4949685;28;20427;-82
2022/02/08 07:17:40;;;;;;;806.63;456.73;;;;;;;;;;4945014;28;20278;-82
2022/02/08 07:20:07;;;;;;;808.40;457.88;;;;;;;;;;4940322;28;20270;-82
2022/02/08 07:22:33;;;;;;;809.30;461.30;;;;;;;;;;4943451;28;20031;-82
2022/02/08 07:24:59;;;;;;;804.88;449.33;;;;;;;;;;4942434;28;20027;-82
2022/02/08 07:27:29;;;;;;;804.75;451.42;;;;;;;;;;4946569;28;20134;-83
2022/02/08 07:29:55;;;;;;;807.38;457.67;;;;;;;;;;4954914;28;20130;-82
2022/02/08 07:32:30;;;;;;;802.03;445.05;;;;;;;;;;4945050;28;20077;-82
2022/02/08 07:35:14;;;;;;;807.03;456.05;;;;;;;;;;4952140;28;20034;-82
2022/02/08 07:40:25;;;;;;;809.35;465.83;;;;;;;;;;4944074;28;20027;-81
2022/02/08 07:42:51;;;;;;;809.77;464.40;;;;;;;;;;4955452;28;20039;-82
2022/02/08 07:45:17;;;;;;;810.42;467.48;;;;;;;;;;4995103;28;20293;-83
2022/02/08 07:47:43;;;;;;;810.40;463.35;;;;;;;;;;4978531;28;20089;-83
2022/02/08 07:50:09;;;;;;;809.92;468.08;;;;;;;;;;4966304;28;20028;-82
2022/02/08 07:52:35;;;;;;;812.78;475.48;;;;;;;;;;4953216;28;20663;-82
2022/02/08 07:55:01;;;;;;;811.88;473.05;;;;;;;;;;4963436;28;20442;-82
2022/02/08 07:57:27;;;;;;;809.10;466.10;;;;;;;;;;4948082;28;20035;-83
2022/02/08 07:59:53;;;;;;;805.72;461.08;;;;;;;;;;4975905;28;20034;-81
2022/02/08 08:02:19;;;;;;;805.90;457.80;;;;;;;;;;4968419;28;20039;-81
2022/02/08 08:04:45;;;;;;;806.08;457.38;;;;;;;;;;4951563;28;20387;-82
2022/02/08 08:07:11;;;;;;;805.42;457.42;;;;;;;;;;4954300;28;20157;-82
2022/02/08 08:09:41;;;;;;;806.30;460.17;;;;;;;;;;4962396;28;20047;-81
2022/02/08 08:12:11;;;;;;;809.35;468.42;;;;;;;;;;4977173;28;20025;-82
2022/02/08 08:14:37;;;;;;;805.47;450.85;;;;;;;;;;4961175;28;20189;-81
2022/02/08 08:17:37;;;;;;;808.28;461.33;;;;;;;;;;4956146;28;20076;-82
2022/02/08 08:19:50;;;;;;;801.80;450.90;;;;;;;;;;4942189;28;20032;-83
2022/02/08 08:22:17;;;;;;;810.03;470.05;;;;;;;;;;4965988;28;20362;-82
2022/02/08 08:24:44;;;;;;;810.85;470.98;;;;;;;;;;4977782;28;20038;-83
2022/02/08 08:27:10;;;;;;;809.00;470.60;;;;;;;;;;4966972;28;20023;-82
2022/02/08 08:29:36;;;;;;;813.58;474.60;;;;;;;;;;4974194;28;20079;-81
2022/02/08 08:32:04;;;;;;;813.80;483.48;;;;;;;;;;4955181;28;20488;-81
2022/02/08 08:34:32;;;;;;;815.65;481.70;;;;;;;;;;4955677;28;20073;-82
2022/02/08 08:36:58;;;;;;;815.30;490.67;;;;;;;;;;4985685;28;20081;-82
2022/02/08 08:39:28;;;;;;;821.55;511.83;;;;;;;;;;4955924;28;20031;-82
2022/02/08 08:49:57;;;;;;;824.25;519.45;;;;;;;;;;4937028;28;20066;-81
2022/02/08 08:52:31;;;;;;;825.13;523.28;;;;;;;;;;4957820;28;20035;-84
2022/02/08 08:54:58;;;;;;;827.20;527.60;;;;;;;;;;4946459;28;20027;-82
2022/02/08 08:57:24;;;;;;;836.70;547.30;;;;;;;;;;4949569;28;20450;-82
2022/02/08 08:59:50;;;;;;;831.83;537.85;;;;;;;;;;4963257;28;20031;-82
2022/02/08 09:02:16;;;;;;;825.35;521.53;;;;;;;;;;4941632;28;20039;-82
2022/02/08 09:04:44;;;;;;;827.67;523.90;;;;;;;;;;4989926;28;20029;-80
2022/02/08 09:07:10;;;;;;;835.38;538.97;;;;;;;;;;4965908;28;20025;-81
2022/02/08 09:09:40;;;;;;;829.15;530.08;;;;;;;;;;4945518;28;20421;-82
2022/02/08 09:12:27;;;;;;;828.17;527.72;;;;;;;;;;4952661;28;20030;-80
2022/02/08 09:18:01;;;;;;;833.95;549.15;;;;;;;;;;4949455;28;20047;-82
2022/02/08 09:25:48;;;;;;;835.97;552.97;;;;;;;;;;4971567;28;20058;-79
2022/02/08 09:28:39;;;;;;;840.30;566.30;;;;;;;;;;4969552;28;20130;-78
2022/02/08 09:31:09;;;;;;;835.72;545.15;;;;;;;;;;4948235;28;20129;-79
2022/02/08 09:33:35;;;;;;;836.92;553.78;;;;;;;;;;4951235;28;20131;-80
2022/02/08 09:36:01;;;;;;;843.08;563.95;;;;;;;;;;4953272;28;20125;-78
2022/02/08 09:38:30;;;;;;;833.90;541.95;;;;;;;;;;4954079;28;20082;-79
2022/02/08 09:40:58;;;;;;;835.85;546.47;;;;;;;;;;4950779;28;20292;-80
2022/02/08 09:43:24;;;;;;;838.75;553.20;;;;;;;;;;4951796;28;20062;-78
2022/02/08 09:45:51;;;;;;;834.47;542.40;;;;;;;;;;4961600;28;20036;-79
2022/02/08 09:48:30;;;;;;;835.45;544.75;;;;;;;;;;4945892;28;20502;-80
2022/02/08 09:50:56;;;;;;;833.83;545.85;;;;;;;;;;5033236;28;20446;-80
2022/02/08 09:53:30;;;;;;;832.42;535.58;;;;;;;;;;4961220;28;20368;-79
2022/02/08 09:55:56;;;;;;;836.13;543.38;;;;;;;;;;4948365;28;20037;-78
2022/02/08 09:58:24;;;;;;;839.75;554.50;;;;;;;;;;4960046;28;20033;-78
2022/02/08 10:00:49;;;;;;;829.78;530.28;;;;;;;;;;4963507;28;20137;-79
2022/02/08 10:03:16;;;;;;;833.40;540.03;;;;;;;;;;4970546;28;20446;-77
2022/02/08 10:06:01;;;;;;;833.35;539.55;;;;;;;;;;4963566;28;20051;-80
2022/02/08 10:08:27;;;;;;;837.30;550.25;;;;;;;;;;4959935;28;20049;-79
2022/02/08 10:10:53;;;;;;;838.28;551.25;;;;;;;;;;4965023;28;20376;-79
2022/02/08 10:13:36;;;;;;;839.00;554.40;;;;;;;;;;4952373;28;20510;-78
2022/02/08 10:21:45;;;;;;;841.63;556.05;;;;;;;;;;4936091;28;20046;-79
2022/02/08 10:24:13;;;;;;;838.28;550.42;;;;;;;;;;4956384;28;20027;-78
2022/02/08 10:26:55;;;;;;;845.95;565.15;;;;;;;;;;4959855;28;20039;-78
2022/02/08 10:29:36;;;;;;;836.65;551.17;;;;;;;;;;4944473;28;20024;-78
2022/02/08 10:40:00;;;;;;;838.75;552.15;;;;;;;;;;4948643;28;20050;-79
2022/02/08 10:42:28;;;;;;;839.33;555.70;;;;;;;;;;4961437;28;20128;-77
2022/02/08 10:44:58;;;;;;;837.90;554.55;;;;;;;;;;4974965;28;20438;-80
2022/02/08 10:47:33;;;;;;;835.00;542.70;;;;;;;;;;4970302;28;20029;-79
2022/02/08 10:50:00;;;;;;;846.70;551.50;;;;;;;;;;4966109;28;20345;-77
2022/02/08 10:52:27;;;;;;;838.60;552.58;;;;;;;;;;4949255;28;20038;-78
2022/02/08 10:54:54;;;;;;;838.80;552.92;;;;;;;;;;4973398;28;20475;-78
2022/02/08 10:57:30;;;;;;;835.20;544.33;;;;;;;;;;4955028;28;20467;-78
2022/02/08 11:00:01;;;;;;;837.83;552.05;;;;;;;;;;4945741;28;20042;-78
2022/02/08 11:02:40;;;;;;;838.15;553.63;;;;;;;;;;4960116;28;20446;-78
2022/02/08 11:07:59;;;;;;;832.17;536.75;;;;;;;;;;4954574;28;20036;-79
2022/02/08 11:13:35;;;;;;;837.28;550.78;;;;;;;;;;4971153;28;20039;-79
2022/02/08 11:16:14;;;;;;;840.60;559.67;;;;;;;;;;4973167;28;20031;-79
2022/02/08 11:19:02;;;;;;;842.92;564.58;;;;;;;;;;4959622;28;20918;-80
2022/02/08 11:21:41;;;;;;;840.67;563.08;;;;;;;;;;4982311;28;20042;-77
2022/02/08 11:24:26;;;;;;;840.25;555.65;;;;;;;;;;4977855;28;20031;-79
2022/02/08 11:26:58;;;;;;;839.17;562.00;;;;;;;;;;4953166;28;20227;-79
2022/02/08 11:29:37;;;;;;;842.70;561.72;;;;;;;;;;4957474;28;20025;-79
2022/02/08 11:32:08;;;;;;;841.50;563.58;;;;;;;;;;4952245;28;20312;-78
2022/02/08 11:45:57;;;;;;;839.08;559.45;;;;;;;;;;4963433;28;20036;-79
2022/02/08 11:52:23;;;;;;;841.38;564.65;;;;;;;;;;4979797;28;20031;-79
2022/02/08 11:57:37;;;;;;;839.75;563.15;;;;;;;;;;4979405;28;20034;-78
2022/02/08 12:00:06;;;;;;;842.78;570.42;;;;;;;;;;4958498;28;20133;-78
2022/02/08 12:07:50;;;;;;;847.58;579.88;;;;;;;;;;4945604;28;20035;-79
2022/02/08 12:10:23;;;;;;;843.50;568.70;;;;;;;;;;4987997;28;20023;-78
2022/02/08 12:54:15;;;;;;;844.60;571.38;;;;;;;;;;4950541;28;20864;-77
2022/02/08 12:57:04;;;;;;;842.10;563.53;;;;;;;;;;4994276;28;20098;-79
2022/02/08 13:02:22;;;;;;;843.97;568.55;;;;;;;;;;4947430;28;20046;-79
2022/02/08 14:02:40;;;;;;;843.00;564.90;;;;;;;;;;4958827;28;20046;-79
2022/02/08 14:07:46;;;;;;;843.63;560.78;;;;;;;;;;4964564;28;20043;-78
2022/02/08 14:10:25;;;;;;;845.78;576.22;;;;;;;;;;4978406;28;20035;-80
2022/02/08 14:29:40;;;;;;;841.35;555.78;;;;;;;;;;4969004;28;20089;-79
2022/02/08 14:32:19;;;;;;;846.65;568.75;;;;;;;;;;4942632;28;20027;-78
2022/02/08 15:10:05;;;;;;;840.88;554.05;;;;;;;;;;4981055;28;20109;-79
2022/02/08 15:12:35;;;;;;;841.97;555.67;;;;;;;;;;4980066;28;20031;-81
2022/02/08 15:15:04;;;;;;;845.97;563.17;;;;;;;;;;4942721;28;20023;-79
2022/02/08 15:17:30;;;;;;;847.13;565.90;;;;;;;;;;4982835;28;20020;-80
2022/02/08 15:19:59;;;;;;;844.15;561.03;;;;;;;;;;4956471;28;20035;-80
2022/02/08 15:22:25;;;;;;;844.80;563.97;;;;;;;;;;4950150;28;20063;-78
2022/02/08 15:24:51;;;;;;;841.83;557.28;;;;;;;;;;4993223;28;20263;-79
2022/02/08 15:27:20;;;;;;;844.65;557.25;;;;;;;;;;4970360;28;20106;-80
2022/02/08 15:29:49;;;;;;;847.40;571.50;;;;;;;;;;4997686;28;20108;-79
2022/02/08 15:32:15;;;;;;;843.95;564.38;;;;;;;;;;4956349;28;20048;-80
2022/02/08 15:34:43;;;;;;;845.13;564.35;;;;;;;;;;4963065;28;20043;-79
2022/02/08 15:37:09;;;;;;;844.88;566.15;;;;;;;;;;4974567;28;20054;-77
2022/02/08 15:39:35;;;;;;;844.55;563.92;;;;;;;;;;4949757;28;20035;-79
2022/02/08 15:42:01;;;;;;;843.78;563.88;;;;;;;;;;4982993;28;20033;-80
2022/02/08 15:44:27;;;;;;;840.13;553.78;;;;;;;;;;4946803;28;20410;-80
2022/02/08 15:46:54;;;;;;;845.05;564.63;;;;;;;;;;4959115;28;20089;-80
2022/02/08 15:49:21;;;;;;;844.03;561.15;;;;;;;;;;4968549;28;20042;-79
2022/02/08 15:51:54;;;;;;;837.78;546.88;;;;;;;;;;4979668;28;20455;-79
2022/02/08 15:54:33;;;;;;;839.63;545.65;;;;;;;;;;4984977;28;20379;-79
2022/02/08 16:05:20;;;;;;;837.58;540.35;;;;;;;;;;4949618;28;20100;-80
2022/02/08 16:07:55;;;;;;;839.72;546.97;;;;;;;;;;4948182;28;20081;-79
2022/02/08 16:10:30;;;;;;;836.65;542.15;;;;;;;;;;4952737;28;20399;-79
2022/02/08 16:16:06;;;;;;;869.40;547.50;;;;;;;;;;4964980;28;20402;-79
2022/02/08 16:18:41;;;;;;;842.55;548.60;;;;;;;;;;4951038;28;20118;-80
2022/02/08 16:22:12;;;;;;;841.13;547.88;;;;;;;;;;4946603;28;20147;-80
2022/02/08 16:26:51;;;;;;;835.88;540.03;;;;;;;;;;4951065;28;20384;-78
2022/02/08 16:54:05;;;;;;;831.45;523.25;;;;;;;;;;4951931;28;20035;-78
2022/02/08 16:59:04;;;;;;;836.95;536.33;;;;;;;;;;4950939;28;20028;-80
2022/02/08 17:01:31;;;;;;;840.50;546.90;;;;;;;;;;4968668;28;20071;-78
2022/02/08 17:03:59;;;;;;;835.63;536.05;;;;;;;;;;4957984;28;20028;-80
2022/02/08 17:06:26;;;;;;;839.05;544.13;;;;;;;;;;4945342;28;20079;-80
2022/02/08 17:09:04;;;;;;;841.60;547.17;;;;;;;;;;4972282;28;20035;-79
2022/02/08 17:12:01;;;;;;;837.88;540.22;;;;;;;;;;4953512;28;20676;-79
2022/02/08 17:46:41;;;;;;;828.67;510.38;;;;;;;;;;4941397;28;20517;-80
2022/02/08 17:49:07;;;;;;;828.25;513.60;;;;;;;;;;4957862;28;20031;-80
2022/02/08 17:51:33;;;;;;;829.47;513.90;;;;;;;;;;4965556;28;20114;-80
2022/02/08 17:53:59;;;;;;;831.58;522.38;;;;;;;;;;4961501;28;20035;-80
2022/02/08 17:56:25;;;;;;;835.40;531.63;;;;;;;;;;4947897;28;20039;-81
2022/02/08 17:58:52;;;;;;;836.63;533.40;;;;;;;;;;4948198;28;20058;-80
2022/02/08 18:01:19;;;;;;;834.78;527.60;;;;;;;;;;4947604;28;20027;-80
2022/02/08 18:03:44;;;;;;;841.78;525.13;;;;;;;;;;4957038;28;20333;-80
2022/02/08 18:06:10;;;;;;;835.50;533.67;;;;;;;;;;4942736;28;20459;-81
2022/02/08 18:08:38;;;;;;;836.83;529.75;;;;;;;;;;4944059;28;20030;-81
2022/02/08 18:11:04;;;;;;;835.63;525.90;;;;;;;;;;4956114;28;20133;-81
2022/02/08 18:13:38;;;;;;;834.88;530.42;;;;;;;;;;4959052;28;20039;-82
2022/02/08 18:16:04;;;;;;;830.80;517.92;;;;;;;;;;4952696;28;20027;-79
2022/02/08 18:18:35;;;;;;;832.30;518.35;;;;;;;;;;4979284;28;20119;-80
2022/02/08 18:21:13;;;;;;;833.03;520.80;;;;;;;;;;4957161;28;20038;-80
2022/02/08 19:16:58;;;;;;;825.05;490.20;;;;;;;;;;4972363;28;20102;-80
2022/02/08 19:21:59;;;;;;;828.22;503.30;;;;;;;;;;4948114;28;20040;-81
2022/02/08 19:24:25;;;;;;;825.53;496.45;;;;;;;;;;4974161;28;20283;-81
2022/02/08 19:26:54;;;;;;;825.28;496.60;;;;;;;;;;4959357;28;20029;-81
2022/02/08 19:29:21;;;;;;;827.80;503.48;;;;;;;;;;4959616;28;20498;-80
2022/02/08 19:31:48;;;;;;;825.55;497.88;;;;;;;;;;4963035;28;20028;-81
2022/02/08 19:34:14;;;;;;;829.25;503.02;;;;;;;;;;4948512;28;20039;-80
2022/02/08 19:36:42;;;;;;;825.85;500.33;;;;;;;;;;4967412;28;20039;-80
2022/02/08 19:39:08;;;;;;;826.33;504.80;;;;;;;;;;4980935;28;20042;-81
2022/02/08 19:41:35;;;;;;;824.33;496.77;;;;;;;;;;4969925;28;20058;-81
2022/02/08 19:44:01;;;;;;;823.92;491.80;;;;;;;;;;4964367;28;20047;-81
2022/02/08 19:46:27;;;;;;;823.95;500.95;;;;;;;;;;4956717;28;20036;-80
2022/02/08 19:48:53;;;;;;;826.40;503.45;;;;;;;;;;4964252;28;20788;-80
2022/02/08 19:51:19;;;;;;;827.40;502.35;;;;;;;;;;4984982;28;20069;-80
2022/02/08 19:53:47;;;;;;;825.90;497.38;;;;;;;;;;4967352;28;20050;-81
2022/02/08 19:58:52;;;;;;;823.35;489.48;;;;;;;;;;4954163;28;20834;-81
2022/02/08 20:01:25;;;;;;;823.72;490.50;;;;;;;;;;4959011;28;20054;-81
2022/02/08 20:04:34;;;;;;;826.78;497.70;;;;;;;;;;4970908;28;20070;-81
2022/02/08 20:06:41;;;;;;;822.50;482.17;;;;;;;;;;4959965;28;20134;-81
2022/02/08 20:09:07;;;;;;;825.53;496.05;;;;;;;;;;4959113;28;20355;-80
2022/02/08 20:11:33;;;;;;;826.50;499.13;;;;;;;;;;4957643;28;20920;-82
2022/02/08 20:14:02;;;;;;;821.60;490.88;;;;;;;;;;4957037;28;20499;-81
2022/02/08 20:16:28;;;;;;;823.20;494.42;;;;;;;;;;4958491;28;20170;-81
2022/02/08 20:18:57;;;;;;;824.70;499.63;;;;;;;;;;4988996;28;20142;-81
2022/02/08 20:21:25;;;;;;;826.00;498.73;;;;;;;;;;4969056;28;20418;-80
2022/02/08 20:23:53;;;;;;;825.95;498.23;;;;;;;;;;4976574;28;20486;-78
2022/02/08 20:26:26;;;;;;;820.92;483.10;;;;;;;;;;4958895;28;20043;-80
2022/02/08 20:28:55;;;;;;;824.50;494.40;;;;;;;;;;4969258;28;20075;-81
2022/02/08 20:31:22;;;;;;;823.33;486.53;;;;;;;;;;4976068;28;20066;-82
2022/02/08 20:33:48;;;;;;;824.45;494.45;;;;;;;;;;4986116;28;20644;-79
2022/02/08 20:36:15;;;;;;;822.35;491.15;;;;;;;;;;4973450;28;20129;-80
2022/02/08 20:38:41;;;;;;;824.58;497.38;;;;;;;;;;4980251;28;20033;-81
2022/02/08 20:41:08;;;;;;;823.15;492.67;;;;;;;;;;4958181;28;20039;-81
2022/02/08 20:43:36;;;;;;;867.80;496.08;;;;;;;;;;4974795;28;20510;-80
2022/02/08 20:46:05;;;;;;;828.67;504.75;;;;;;;;;;4986301;28;20034;-79
2022/02/08 20:48:32;;;;;;;826.25;499.60;;;;;;;;;;4962349;28;20118;-80
2022/02/08 20:51:01;;;;;;;822.80;494.35;;;;;;;;;;4972320;28;20223;-80
2022/02/08 20:53:47;;;;;;;825.72;498.23;;;;;;;;;;4958865;28;20039;-81
2022/02/08 20:56:27;;;;;;;825.03;494.60;;;;;;;;;;4961286;28;20031;-81
2022/02/08 21:01:27;;;;;;;823.60;490.05;;;;;;;;;;4973547;28;20066;-81
2022/02/08 21:04:00;;;;;;;825.60;496.83;;;;;;;;;;4964259;28;20114;-80
2022/02/08 21:06:28;;;;;;;823.80;492.30;;;;;;;;;;4982956;28;20041;-81
2022/02/08 21:08:59;;;;;;;824.47;500.67;;;;;;;;;;4966828;28;20055;-79
2022/02/08 21:11:36;;;;;;;819.88;484.13;;;;;;;;;;4959144;28;20023;-79
2022/02/08 21:14:07;;;;;;;821.45;488.85;;;;;;;;;;4966914;28;20024;-80
2022/02/08 21:16:41;;;;;;;822.28;490.60;;;;;;;;;;4982183;28;20028;-79
2022/02/08 21:19:07;;;;;;;822.22;492.55;;;;;;;;;;4982036;28;20033;-81
2022/02/08 21:21:33;;;;;;;820.30;483.77;;;;;;;;;;4960738;28;20038;-79
2022/02/08 21:23:59;;;;;;;824.17;495.88;;;;;;;;;;4955402;28;20023;-80
2022/02/08 21:26:30;;;;;;;821.92;493.00;;;;;;;;;;4974742;28;20054;-81
2022/02/08 21:53:07;;;;;;;821.33;489.92;;;;;;;;;;4968695;28;20482;-80
2022/02/08 21:55:34;;;;;;;819.78;480.30;;;;;;;;;;4969860;28;20407;-79
2022/02/08 21:58:03;;;;;;;821.80;493.80;;;;;;;;;;4972235;28;20124;-79
2022/02/08 22:00:31;;;;;;;818.97;486.52;;;;;;;;;;4952795;28;20052;-81
2022/02/08 22:02:57;;;;;;;820.28;486.33;;;;;;;;;;4967596;28;20027;-79